sensor_id;sensor_type;location;lat;lon;timestamp;P1;durP1;ratioP1;P2;durP2;ratioP2
17574;SDS011;8906;43.590;1.418;2023-04-01T00:01:09;15.13;;;4.93;;
17574;SDS011;8906;43.590;1.418;2023-04-01T00:03:39;11.77;;;5.22;;
17574;SDS011;8906;43.590;1.418;2023-04-01T00:06:07;13.50;;;3.92;;
17574;SDS011;8906;43.590;1.418;2023-04-01T00:08:36;15.98;;;6.25;;
17574;SDS011;8906;43.590;1.418;2023-04-01T00:11:03;12.38;;;4.22;;
17574;SDS011;8906;43.590;1.418;2023-04-01T00:13:30;15.77;;;6.22;;
17574;SDS011;8906;43.590;1.418;2023-04-01T00:15:57;22.58;;;5.75;;
17574;SDS011;8906;43.590;1.418;2023-04-01T00:18:26;10.05;;;4.38;;
17574;SDS011;8906;43.590;1.418;2023-04-01T00:20:53;18.27;;;6.13;;
17574;SDS011;8906;43.590;1.418;2023-04-01T00:23:20;16.02;;;6.32;;
17574;SDS011;8906;43.590;1.418;2023-04-01T00:25:49;19.13;;;4.50;;
17574;SDS011;8906;43.590;1.418;2023-04-01T00:28:17;20.17;;;5.30;;
17574;SDS011;8906;43.590;1.418;2023-04-01T00:30:46;22.25;;;7.25;;
17574;SDS011;8906;43.590;1.418;2023-04-01T00:33:13;8.68;;;3.80;;
17574;SDS011;8906;43.590;1.418;2023-04-01T00:35:41;19.13;;;5.65;;
17574;SDS011;8906;43.590;1.418;2023-04-01T00:38:08;12.15;;;3.35;;
17574;SDS011;8906;43.590;1.418;2023-04-01T00:40:37;19.15;;;4.93;;
17574;SDS011;8906;43.590;1.418;2023-04-01T00:43:10;15.63;;;5.85;;
17574;SDS011;8906;43.590;1.418;2023-04-01T00:45:39;10.50;;;5.13;;
17574;SDS011;8906;43.590;1.418;2023-04-01T00:48:09;12.88;;;5.07;;
17574;SDS011;8906;43.590;1.418;2023-04-01T00:50:39;16.75;;;4.35;;
17574;SDS011;8906;43.590;1.418;2023-04-01T00:53:10;14.20;;;4.15;;
17574;SDS011;8906;43.590;1.418;2023-04-01T00:55:39;13.88;;;4.30;;
17574;SDS011;8906;43.590;1.418;2023-04-01T00:58:11;14.55;;;4.65;;
17574;SDS011;8906;43.590;1.418;2023-04-01T01:00:43;14.77;;;3.57;;
17574;SDS011;8906;43.590;1.418;2023-04-01T01:03:12;12.32;;;4.35;;
17574;SDS011;8906;43.590;1.418;2023-04-01T01:05:46;20.08;;;5.32;;
17574;SDS011;8906;43.590;1.418;2023-04-01T01:08:25;11.73;;;3.88;;
17574;SDS011;8906;43.590;1.418;2023-04-01T01:11:05;12.57;;;4.38;;
17574;SDS011;8906;43.590;1.418;2023-04-01T01:13:39;11.98;;;3.83;;
17574;SDS011;8906;43.590;1.418;2023-04-01T01:16:10;13.60;;;4.07;;
17574;SDS011;8906;43.590;1.418;2023-04-01T01:18:46;18.88;;;6.07;;
17574;SDS011;8906;43.590;1.418;2023-04-01T01:24:26;10.55;;;4.57;;
17574;SDS011;8906;43.590;1.418;2023-04-01T01:27:07;8.70;;;3.92;;
17574;SDS011;8906;43.590;1.418;2023-04-01T01:29:42;13.23;;;4.70;;
17574;SDS011;8906;43.590;1.418;2023-04-01T01:35:27;12.32;;;4.35;;
17574;SDS011;8906;43.590;1.418;2023-04-01T01:37:59;15.52;;;5.15;;
17574;SDS011;8906;43.590;1.418;2023-04-01T01:40:29;15.52;;;4.70;;
17574;SDS011;8906;43.590;1.418;2023-04-01T01:42:59;14.52;;;3.83;;
17574;SDS011;8906;43.590;1.418;2023-04-01T01:45:30;15.10;;;4.72;;
17574;SDS011;8906;43.590;1.418;2023-04-01T01:48:01;15.10;;;3.75;;
17574;SDS011;8906;43.590;1.418;2023-04-01T01:50:31;16.42;;;5.70;;
17574;SDS011;8906;43.590;1.418;2023-04-01T01:53:01;19.55;;;5.68;;
17574;SDS011;8906;43.590;1.418;2023-04-01T01:55:32;21.10;;;4.57;;
17574;SDS011;8906;43.590;1.418;2023-04-01T01:58:02;18.42;;;4.88;;
17574;SDS011;8906;43.590;1.418;2023-04-01T02:00:38;11.38;;;3.90;;
17574;SDS011;8906;43.590;1.418;2023-04-01T02:03:07;16.38;;;4.85;;
17574;SDS011;8906;43.590;1.418;2023-04-01T02:05:37;14.60;;;5.33;;
17574;SDS011;8906;43.590;1.418;2023-04-01T02:08:05;9.90;;;5.70;;
17574;SDS011;8906;43.590;1.418;2023-04-01T02:10:35;10.93;;;3.92;;
17574;SDS011;8906;43.590;1.418;2023-04-01T02:13:07;10.80;;;3.70;;
17574;SDS011;8906;43.590;1.418;2023-04-01T02:15:41;13.48;;;5.10;;
17574;SDS011;8906;43.590;1.418;2023-04-01T02:18:12;17.83;;;6.10;;
17574;SDS011;8906;43.590;1.418;2023-04-01T02:20:42;11.57;;;4.80;;
17574;SDS011;8906;43.590;1.418;2023-04-01T02:23:11;8.88;;;4.82;;
17574;SDS011;8906;43.590;1.418;2023-04-01T02:25:38;10.57;;;4.00;;
17574;SDS011;8906;43.590;1.418;2023-04-01T02:28:08;14.27;;;5.07;;
17574;SDS011;8906;43.590;1.418;2023-04-01T02:30:36;15.45;;;5.05;;
17574;SDS011;8906;43.590;1.418;2023-04-01T02:33:05;15.90;;;4.57;;
17574;SDS011;8906;43.590;1.418;2023-04-01T02:35:33;14.63;;;4.18;;
17574;SDS011;8906;43.590;1.418;2023-04-01T02:38:03;14.77;;;5.27;;
17574;SDS011;8906;43.590;1.418;2023-04-01T02:40:40;13.37;;;6.97;;
17574;SDS011;8906;43.590;1.418;2023-04-01T02:43:08;16.73;;;5.23;;
17574;SDS011;8906;43.590;1.418;2023-04-01T02:45:36;15.73;;;4.32;;
17574;SDS011;8906;43.590;1.418;2023-04-01T02:48:03;17.03;;;4.83;;
17574;SDS011;8906;43.590;1.418;2023-04-01T02:50:31;23.47;;;6.37;;
17574;SDS011;8906;43.590;1.418;2023-04-01T02:52:58;12.23;;;6.53;;
17574;SDS011;8906;43.590;1.418;2023-04-01T02:55:26;14.93;;;4.68;;
17574;SDS011;8906;43.590;1.418;2023-04-01T02:57:53;20.38;;;4.53;;
17574;SDS011;8906;43.590;1.418;2023-04-01T03:00:20;12.50;;;4.53;;
17574;SDS011;8906;43.590;1.418;2023-04-01T03:02:47;10.30;;;4.97;;
17574;SDS011;8906;43.590;1.418;2023-04-01T03:05:14;18.43;;;5.40;;
17574;SDS011;8906;43.590;1.418;2023-04-01T03:07:41;11.50;;;4.73;;
17574;SDS011;8906;43.590;1.418;2023-04-01T03:10:09;22.80;;;5.17;;
17574;SDS011;8906;43.590;1.418;2023-04-01T03:12:37;8.53;;;3.07;;
17574;SDS011;8906;43.590;1.418;2023-04-01T03:15:04;14.17;;;5.03;;
17574;SDS011;8906;43.590;1.418;2023-04-01T03:17:32;20.37;;;6.00;;
17574;SDS011;8906;43.590;1.418;2023-04-01T03:19:59;15.27;;;5.83;;
17574;SDS011;8906;43.590;1.418;2023-04-01T03:22:26;10.83;;;4.63;;
17574;SDS011;8906;43.590;1.418;2023-04-01T03:24:52;17.87;;;5.40;;
17574;SDS011;8906;43.590;1.418;2023-04-01T03:27:19;12.40;;;4.80;;
17574;SDS011;8906;43.590;1.418;2023-04-01T03:29:48;7.80;;;3.95;;
17574;SDS011;8906;43.590;1.418;2023-04-01T03:32:15;9.73;;;4.63;;
17574;SDS011;8906;43.590;1.418;2023-04-01T03:34:42;20.50;;;5.30;;
17574;SDS011;8906;43.590;1.418;2023-04-01T03:37:08;15.97;;;4.53;;
17574;SDS011;8906;43.590;1.418;2023-04-01T03:39:35;21.77;;;5.53;;
17574;SDS011;8906;43.590;1.418;2023-04-01T03:42:03;15.30;;;5.77;;
17574;SDS011;8906;43.590;1.418;2023-04-01T03:44:31;13.87;;;5.73;;
17574;SDS011;8906;43.590;1.418;2023-04-01T03:47:00;17.50;;;5.73;;
17574;SDS011;8906;43.590;1.418;2023-04-01T03:49:27;9.47;;;4.30;;
17574;SDS011;8906;43.590;1.418;2023-04-01T03:51:54;13.13;;;5.57;;
17574;SDS011;8906;43.590;1.418;2023-04-01T03:54:21;16.60;;;6.03;;
17574;SDS011;8906;43.590;1.418;2023-04-01T03:56:48;15.27;;;4.97;;
17574;SDS011;8906;43.590;1.418;2023-04-01T03:59:15;14.68;;;5.15;;
17574;SDS011;8906;43.590;1.418;2023-04-01T04:01:42;15.23;;;5.27;;
17574;SDS011;8906;43.590;1.418;2023-04-01T04:04:11;14.10;;;4.50;;
17574;SDS011;8906;43.590;1.418;2023-04-01T04:06:39;24.63;;;5.63;;
17574;SDS011;8906;43.590;1.418;2023-04-01T04:09:06;16.97;;;5.63;;
17574;SDS011;8906;43.590;1.418;2023-04-01T04:11:33;13.30;;;5.20;;
17574;SDS011;8906;43.590;1.418;2023-04-01T04:14:00;9.23;;;4.30;;
17574;SDS011;8906;43.590;1.418;2023-04-01T04:16:28;17.93;;;4.97;;
17574;SDS011;8906;43.590;1.418;2023-04-01T04:18:54;13.63;;;5.93;;
17574;SDS011;8906;43.590;1.418;2023-04-01T04:21:23;12.27;;;4.80;;
17574;SDS011;8906;43.590;1.418;2023-04-01T04:23:50;17.00;;;3.63;;
17574;SDS011;8906;43.590;1.418;2023-04-01T04:26:17;18.30;;;5.53;;
17574;SDS011;8906;43.590;1.418;2023-04-01T04:28:44;18.80;;;4.53;;
17574;SDS011;8906;43.590;1.418;2023-04-01T04:31:11;19.80;;;4.93;;
17574;SDS011;8906;43.590;1.418;2023-04-01T04:33:38;17.73;;;4.33;;
17574;SDS011;8906;43.590;1.418;2023-04-01T04:36:05;13.33;;;4.50;;
17574;SDS011;8906;43.590;1.418;2023-04-01T04:38:34;13.27;;;4.57;;
17574;SDS011;8906;43.590;1.418;2023-04-01T04:41:00;16.07;;;5.40;;
17574;SDS011;8906;43.590;1.418;2023-04-01T04:43:27;7.55;;;4.20;;
17574;SDS011;8906;43.590;1.418;2023-04-01T04:45:54;11.27;;;3.77;;
17574;SDS011;8906;43.590;1.418;2023-04-01T04:48:21;14.13;;;4.05;;
17574;SDS011;8906;43.590;1.418;2023-04-01T04:50:49;22.77;;;5.68;;
17574;SDS011;8906;43.590;1.418;2023-04-01T04:53:17;18.63;;;5.53;;
17574;SDS011;8906;43.590;1.418;2023-04-01T04:55:46;11.63;;;4.45;;
17574;SDS011;8906;43.590;1.418;2023-04-01T04:58:14;20.67;;;5.78;;
17574;SDS011;8906;43.590;1.418;2023-04-01T05:00:41;14.07;;;4.07;;
17574;SDS011;8906;43.590;1.418;2023-04-01T05:03:09;15.73;;;4.40;;
17574;SDS011;8906;43.590;1.418;2023-04-01T05:05:36;11.70;;;4.57;;
17574;SDS011;8906;43.590;1.418;2023-04-01T05:08:03;10.40;;;3.97;;
17574;SDS011;8906;43.590;1.418;2023-04-01T05:10:31;14.95;;;4.20;;
17574;SDS011;8906;43.590;1.418;2023-04-01T05:12:59;9.77;;;4.43;;
17574;SDS011;8906;43.590;1.418;2023-04-01T05:15:26;14.70;;;3.90;;
17574;SDS011;8906;43.590;1.418;2023-04-01T05:17:53;12.67;;;4.93;;
17574;SDS011;8906;43.590;1.418;2023-04-01T05:20:20;11.50;;;4.60;;
17574;SDS011;8906;43.590;1.418;2023-04-01T05:22:47;13.45;;;5.78;;
17574;SDS011;8906;43.590;1.418;2023-04-01T05:25:14;12.07;;;4.95;;
17574;SDS011;8906;43.590;1.418;2023-04-01T05:27:43;12.15;;;4.15;;
17574;SDS011;8906;43.590;1.418;2023-04-01T05:30:12;12.25;;;4.70;;
17574;SDS011;8906;43.590;1.418;2023-04-01T05:32:39;15.00;;;4.70;;
17574;SDS011;8906;43.590;1.418;2023-04-01T05:35:07;13.67;;;4.90;;
17574;SDS011;8906;43.590;1.418;2023-04-01T05:37:35;12.80;;;3.97;;
17574;SDS011;8906;43.590;1.418;2023-04-01T05:40:04;18.57;;;4.87;;
17574;SDS011;8906;43.590;1.418;2023-04-01T05:42:32;11.00;;;4.13;;
17574;SDS011;8906;43.590;1.418;2023-04-01T05:44:59;16.83;;;5.53;;
17574;SDS011;8906;43.590;1.418;2023-04-01T05:47:30;17.53;;;4.40;;
17574;SDS011;8906;43.590;1.418;2023-04-01T05:49:59;11.70;;;4.50;;
17574;SDS011;8906;43.590;1.418;2023-04-01T05:52:27;15.60;;;3.93;;
17574;SDS011;8906;43.590;1.418;2023-04-01T05:54:54;16.67;;;5.00;;
17574;SDS011;8906;43.590;1.418;2023-04-01T05:57:23;33.57;;;5.90;;
17574;SDS011;8906;43.590;1.418;2023-04-01T05:59:50;14.20;;;4.80;;
17574;SDS011;8906;43.590;1.418;2023-04-01T06:02:17;15.27;;;5.85;;
17574;SDS011;8906;43.590;1.418;2023-04-01T06:04:47;12.95;;;5.00;;
17574;SDS011;8906;43.590;1.418;2023-04-01T06:07:16;19.70;;;5.13;;
17574;SDS011;8906;43.590;1.418;2023-04-01T06:09:44;17.73;;;4.57;;
17574;SDS011;8906;43.590;1.418;2023-04-01T06:12:25;9.40;;;4.30;;
17574;SDS011;8906;43.590;1.418;2023-04-01T06:15:13;12.17;;;4.53;;
17574;SDS011;8906;43.590;1.418;2023-04-01T06:17:51;12.82;;;4.35;;
17574;SDS011;8906;43.590;1.418;2023-04-01T06:20:34;11.50;;;4.47;;
17574;SDS011;8906;43.590;1.418;2023-04-01T06:23:19;14.43;;;4.83;;
17574;SDS011;8906;43.590;1.418;2023-04-01T06:25:56;13.23;;;5.73;;
17574;SDS011;8906;43.590;1.418;2023-04-01T06:31:47;8.90;;;5.00;;
17574;SDS011;8906;43.590;1.418;2023-04-01T06:34:39;17.95;;;5.18;;
17574;SDS011;8906;43.590;1.418;2023-04-01T06:37:28;16.57;;;5.47;;
17574;SDS011;8906;43.590;1.418;2023-04-01T06:40:19;15.63;;;5.90;;
17574;SDS011;8906;43.590;1.418;2023-04-01T06:43:00;7.77;;;4.10;;
17574;SDS011;8906;43.590;1.418;2023-04-01T06:45:37;14.25;;;4.30;;
17574;SDS011;8906;43.590;1.418;2023-04-01T06:48:13;12.17;;;4.17;;
17574;SDS011;8906;43.590;1.418;2023-04-01T06:50:54;11.03;;;4.03;;
17574;SDS011;8906;43.590;1.418;2023-04-01T06:53:30;21.87;;;5.30;;
17574;SDS011;8906;43.590;1.418;2023-04-01T06:56:02;15.13;;;5.40;;
17574;SDS011;8906;43.590;1.418;2023-04-01T06:58:34;14.60;;;4.35;;
17574;SDS011;8906;43.590;1.418;2023-04-01T07:01:06;14.35;;;3.92;;
17574;SDS011;8906;43.590;1.418;2023-04-01T07:03:36;12.98;;;4.63;;
17574;SDS011;8906;43.590;1.418;2023-04-01T07:06:08;13.75;;;5.72;;
17574;SDS011;8906;43.590;1.418;2023-04-01T07:08:40;14.00;;;4.35;;
17574;SDS011;8906;43.590;1.418;2023-04-01T07:11:10;14.75;;;4.18;;
17574;SDS011;8906;43.590;1.418;2023-04-01T07:13:43;17.90;;;5.40;;
17574;SDS011;8906;43.590;1.418;2023-04-01T07:16:15;10.90;;;4.65;;
17574;SDS011;8906;43.590;1.418;2023-04-01T07:18:46;23.15;;;7.40;;
17574;SDS011;8906;43.590;1.418;2023-04-01T07:21:22;20.15;;;5.82;;
17574;SDS011;8906;43.590;1.418;2023-04-01T07:23:54;14.82;;;4.45;;
17574;SDS011;8906;43.590;1.418;2023-04-01T07:26:25;15.35;;;4.95;;
17574;SDS011;8906;43.590;1.418;2023-04-01T07:28:53;11.68;;;5.60;;
17574;SDS011;8906;43.590;1.418;2023-04-01T07:31:24;8.82;;;3.92;;
17574;SDS011;8906;43.590;1.418;2023-04-01T07:34:01;10.88;;;3.53;;
17574;SDS011;8906;43.590;1.418;2023-04-01T07:36:36;10.32;;;5.28;;
17574;SDS011;8906;43.590;1.418;2023-04-01T07:39:12;12.98;;;4.78;;
17574;SDS011;8906;43.590;1.418;2023-04-01T07:41:51;12.02;;;3.58;;
17574;SDS011;8906;43.590;1.418;2023-04-01T07:44:24;8.68;;;3.90;;
17574;SDS011;8906;43.590;1.418;2023-04-01T07:47:05;10.52;;;5.35;;
17574;SDS011;8906;43.590;1.418;2023-04-01T07:49:46;13.82;;;3.85;;
17574;SDS011;8906;43.590;1.418;2023-04-01T07:52:24;12.75;;;4.28;;
17574;SDS011;8906;43.590;1.418;2023-04-01T07:55:00;13.60;;;4.50;;
17574;SDS011;8906;43.590;1.418;2023-04-01T07:57:34;6.18;;;4.32;;
17574;SDS011;8906;43.590;1.418;2023-04-01T08:00:10;19.08;;;4.75;;
17574;SDS011;8906;43.590;1.418;2023-04-01T08:02:44;13.35;;;4.63;;
17574;SDS011;8906;43.590;1.418;2023-04-01T08:05:33;11.05;;;4.45;;
17574;SDS011;8906;43.590;1.418;2023-04-01T08:08:09;13.85;;;4.43;;
17574;SDS011;8906;43.590;1.418;2023-04-01T08:10:47;13.60;;;4.28;;
17574;SDS011;8906;43.590;1.418;2023-04-01T08:13:21;11.18;;;4.45;;
17574;SDS011;8906;43.590;1.418;2023-04-01T08:15:57;22.88;;;5.85;;
17574;SDS011;8906;43.590;1.418;2023-04-01T08:18:33;9.20;;;4.80;;
17574;SDS011;8906;43.590;1.418;2023-04-01T08:21:10;14.23;;;5.22;;
17574;SDS011;8906;43.590;1.418;2023-04-01T08:23:41;19.65;;;5.72;;
17574;SDS011;8906;43.590;1.418;2023-04-01T08:26:23;9.60;;;4.78;;
17574;SDS011;8906;43.590;1.418;2023-04-01T08:28:57;6.47;;;3.67;;
17574;SDS011;8906;43.590;1.418;2023-04-01T08:31:29;20.90;;;6.47;;
17574;SDS011;8906;43.590;1.418;2023-04-01T08:33:59;14.95;;;4.90;;
17574;SDS011;8906;43.590;1.418;2023-04-01T08:36:31;18.55;;;5.07;;
17574;SDS011;8906;43.590;1.418;2023-04-01T08:39:02;11.38;;;5.53;;
17574;SDS011;8906;43.590;1.418;2023-04-01T08:41:44;12.52;;;4.30;;
17574;SDS011;8906;43.590;1.418;2023-04-01T08:47:38;19.10;;;4.93;;
17574;SDS011;8906;43.590;1.418;2023-04-01T08:50:38;12.77;;;5.32;;
17574;SDS011;8906;43.590;1.418;2023-04-01T08:53:18;9.23;;;3.60;;
17574;SDS011;8906;43.590;1.418;2023-04-01T08:55:56;7.78;;;3.35;;
17574;SDS011;8906;43.590;1.418;2023-04-01T08:58:46;8.45;;;3.20;;
17574;SDS011;8906;43.590;1.418;2023-04-01T09:01:34;8.63;;;3.08;;
17574;SDS011;8906;43.590;1.418;2023-04-01T09:04:24;6.60;;;2.95;;
17574;SDS011;8906;43.590;1.418;2023-04-01T09:07:00;9.15;;;3.17;;
17574;SDS011;8906;43.590;1.418;2023-04-01T09:12:39;5.75;;;2.92;;
17574;SDS011;8906;43.590;1.418;2023-04-01T09:15:29;7.15;;;3.28;;
17574;SDS011;8906;43.590;1.418;2023-04-01T09:21:17;10.07;;;2.28;;
17574;SDS011;8906;43.590;1.418;2023-04-01T09:24:06;3.03;;;2.72;;
17574;SDS011;8906;43.590;1.418;2023-04-01T09:26:53;14.18;;;2.60;;
17574;SDS011;8906;43.590;1.418;2023-04-01T09:29:32;9.13;;;2.63;;
17574;SDS011;8906;43.590;1.418;2023-04-01T09:32:26;5.82;;;2.88;;
17574;SDS011;8906;43.590;1.418;2023-04-01T09:35:19;6.15;;;1.67;;
17574;SDS011;8906;43.590;1.418;2023-04-01T09:37:52;4.55;;;1.90;;
17574;SDS011;8906;43.590;1.418;2023-04-01T09:40:28;8.07;;;2.90;;
17574;SDS011;8906;43.590;1.418;2023-04-01T09:43:16;4.97;;;1.67;;
17574;SDS011;8906;43.590;1.418;2023-04-01T09:51:59;6.85;;;1.52;;
17574;SDS011;8906;43.590;1.418;2023-04-01T09:54:45;5.80;;;1.88;;
17574;SDS011;8906;43.590;1.418;2023-04-01T10:06:32;5.95;;;2.85;;
17574;SDS011;8906;43.590;1.418;2023-04-01T10:16:02;5.07;;;2.10;;
17574;SDS011;8906;43.590;1.418;2023-04-01T10:18:52;2.05;;;1.73;;
17574;SDS011;8906;43.590;1.418;2023-04-01T10:21:42;3.65;;;2.00;;
17574;SDS011;8906;43.590;1.418;2023-04-01T10:24:59;4.13;;;1.80;;
17574;SDS011;8906;43.590;1.418;2023-04-01T10:27:48;3.08;;;2.30;;
17574;SDS011;8906;43.590;1.418;2023-04-01T10:37:11;6.72;;;2.38;;
17574;SDS011;8906;43.590;1.418;2023-04-01T10:40:02;3.22;;;2.33;;
17574;SDS011;8906;43.590;1.418;2023-04-01T10:46:06;3.33;;;2.20;;
17574;SDS011;8906;43.590;1.418;2023-04-01T10:55:14;5.60;;;2.47;;
17574;SDS011;8906;43.590;1.418;2023-04-01T10:58:05;5.20;;;3.60;;
17574;SDS011;8906;43.590;1.418;2023-04-01T11:01:03;11.90;;;3.10;;
17574;SDS011;8906;43.590;1.418;2023-04-01T11:04:03;6.97;;;2.10;;
17574;SDS011;8906;43.590;1.418;2023-04-01T11:07:30;5.65;;;2.60;;
17574;SDS011;8906;43.590;1.418;2023-04-01T11:10:45;5.38;;;3.03;;
17574;SDS011;8906;43.590;1.418;2023-04-01T11:17:00;4.85;;;2.10;;
17574;SDS011;8906;43.590;1.418;2023-04-01T11:22:51;7.32;;;2.25;;
17574;SDS011;8906;43.590;1.418;2023-04-01T11:31:33;5.85;;;1.50;;
17574;SDS011;8906;43.590;1.418;2023-04-01T11:34:10;5.40;;;2.35;;
17574;SDS011;8906;43.590;1.418;2023-04-01T11:36:45;4.80;;;1.52;;
17574;SDS011;8906;43.590;1.418;2023-04-01T11:39:22;7.88;;;2.97;;
17574;SDS011;8906;43.590;1.418;2023-04-01T11:41:56;2.10;;;1.58;;
17574;SDS011;8906;43.590;1.418;2023-04-01T11:44:30;3.95;;;1.30;;
17574;SDS011;8906;43.590;1.418;2023-04-01T11:47:12;2.30;;;1.52;;
17574;SDS011;8906;43.590;1.418;2023-04-01T11:49:54;4.03;;;1.30;;
17574;SDS011;8906;43.590;1.418;2023-04-01T11:52:37;4.30;;;2.33;;
17574;SDS011;8906;43.590;1.418;2023-04-01T11:55:18;5.43;;;1.60;;
17574;SDS011;8906;43.590;1.418;2023-04-01T11:58:14;2.25;;;1.30;;
17574;SDS011;8906;43.590;1.418;2023-04-01T12:00:55;3.40;;;1.00;;
17574;SDS011;8906;43.590;1.418;2023-04-01T12:03:36;2.13;;;1.20;;
17574;SDS011;8906;43.590;1.418;2023-04-01T12:06:25;8.90;;;2.17;;
17574;SDS011;8906;43.590;1.418;2023-04-01T12:09:01;1.58;;;1.23;;
17574;SDS011;8906;43.590;1.418;2023-04-01T12:11:37;2.85;;;1.90;;
17574;SDS011;8906;43.590;1.418;2023-04-01T12:14:11;4.75;;;1.30;;
17574;SDS011;8906;43.590;1.418;2023-04-01T12:16:49;3.08;;;1.30;;
17574;SDS011;8906;43.590;1.418;2023-04-01T12:19:26;2.97;;;1.38;;
17574;SDS011;8906;43.590;1.418;2023-04-01T12:22:08;6.00;;;2.10;;
17574;SDS011;8906;43.590;1.418;2023-04-01T12:24:46;3.10;;;1.88;;
17574;SDS011;8906;43.590;1.418;2023-04-01T12:36:13;2.35;;;1.02;;
17574;SDS011;8906;43.590;1.418;2023-04-01T12:38:51;4.50;;;1.38;;
17574;SDS011;8906;43.590;1.418;2023-04-01T12:41:32;3.83;;;1.42;;
17574;SDS011;8906;43.590;1.418;2023-04-01T12:44:26;2.33;;;1.10;;
17574;SDS011;8906;43.590;1.418;2023-04-01T12:53:10;3.55;;;1.67;;
17574;SDS011;8906;43.590;1.418;2023-04-01T12:55:51;5.25;;;1.60;;
17574;SDS011;8906;43.590;1.418;2023-04-01T13:01:22;6.00;;;1.35;;
17574;SDS011;8906;43.590;1.418;2023-04-01T13:07:10;7.45;;;1.60;;
17574;SDS011;8906;43.590;1.418;2023-04-01T13:09:51;2.33;;;1.50;;
17574;SDS011;8906;43.590;1.418;2023-04-01T13:12:28;5.35;;;2.15;;
17574;SDS011;8906;43.590;1.418;2023-04-01T13:15:09;2.35;;;1.65;;
17574;SDS011;8906;43.590;1.418;2023-04-01T13:17:47;2.28;;;0.80;;
17574;SDS011;8906;43.590;1.418;2023-04-01T13:20:23;2.50;;;1.02;;
17574;SDS011;8906;43.590;1.418;2023-04-01T13:23:00;1.55;;;1.40;;
17574;SDS011;8906;43.590;1.418;2023-04-01T13:25:36;3.00;;;2.08;;
17574;SDS011;8906;43.590;1.418;2023-04-01T13:28:10;2.33;;;0.95;;
17574;SDS011;8906;43.590;1.418;2023-04-01T13:30:43;2.65;;;1.45;;
17574;SDS011;8906;43.590;1.418;2023-04-01T13:33:24;5.22;;;1.30;;
17574;SDS011;8906;43.590;1.418;2023-04-01T13:36:00;2.97;;;0.93;;
17574;SDS011;8906;43.590;1.418;2023-04-01T13:38:41;2.03;;;0.90;;
17574;SDS011;8906;43.590;1.418;2023-04-01T13:44:33;8.80;;;4.15;;
17574;SDS011;8906;43.590;1.418;2023-04-01T13:47:21;8.15;;;3.42;;
17574;SDS011;8906;43.590;1.418;2023-04-01T13:50:18;9.85;;;3.60;;
17574;SDS011;8906;43.590;1.418;2023-04-01T13:53:05;4.72;;;1.52;;
17574;SDS011;8906;43.590;1.418;2023-04-01T13:55:58;2.45;;;0.90;;
17574;SDS011;8906;43.590;1.418;2023-04-01T13:58:38;2.95;;;0.80;;
17574;SDS011;8906;43.590;1.418;2023-04-01T14:01:29;3.15;;;1.02;;
17574;SDS011;8906;43.590;1.418;2023-04-01T14:04:15;5.82;;;2.03;;
17574;SDS011;8906;43.590;1.418;2023-04-01T14:07:08;3.58;;;1.50;;
17574;SDS011;8906;43.590;1.418;2023-04-01T14:09:47;3.90;;;1.90;;
17574;SDS011;8906;43.590;1.418;2023-04-01T14:12:31;3.10;;;1.90;;
17574;SDS011;8906;43.590;1.418;2023-04-01T14:15:07;2.67;;;1.25;;
17574;SDS011;8906;43.590;1.418;2023-04-01T14:17:54;4.65;;;1.85;;
17574;SDS011;8906;43.590;1.418;2023-04-01T14:20:45;3.35;;;1.65;;
17574;SDS011;8906;43.590;1.418;2023-04-01T14:23:23;4.70;;;2.03;;
17574;SDS011;8906;43.590;1.418;2023-04-01T14:26:02;3.67;;;1.50;;
17574;SDS011;8906;43.590;1.418;2023-04-01T14:28:37;7.85;;;2.83;;
17574;SDS011;8906;43.590;1.418;2023-04-01T14:34:09;5.35;;;1.48;;
17574;SDS011;8906;43.590;1.418;2023-04-01T14:36:50;3.38;;;1.23;;
17574;SDS011;8906;43.590;1.418;2023-04-01T14:39:33;7.47;;;1.70;;
17574;SDS011;8906;43.590;1.418;2023-04-01T14:42:16;7.18;;;1.30;;
17574;SDS011;8906;43.590;1.418;2023-04-01T14:45:00;3.58;;;1.17;;
17574;SDS011;8906;43.590;1.418;2023-04-01T14:47:44;8.43;;;1.98;;
17574;SDS011;8906;43.590;1.418;2023-04-01T14:50:15;3.25;;;2.28;;
17574;SDS011;8906;43.590;1.418;2023-04-01T14:52:45;3.50;;;1.95;;
17574;SDS011;8906;43.590;1.418;2023-04-01T14:55:27;3.85;;;1.60;;
17574;SDS011;8906;43.590;1.418;2023-04-01T14:57:59;3.63;;;1.33;;
17574;SDS011;8906;43.590;1.418;2023-04-01T15:00:46;2.45;;;1.30;;
17574;SDS011;8906;43.590;1.418;2023-04-01T15:03:18;3.30;;;2.05;;
17574;SDS011;8906;43.590;1.418;2023-04-01T15:05:52;2.60;;;1.13;;
17574;SDS011;8906;43.590;1.418;2023-04-01T15:08:27;1.50;;;1.40;;
17574;SDS011;8906;43.590;1.418;2023-04-01T15:11:16;2.20;;;1.13;;
17574;SDS011;8906;43.590;1.418;2023-04-01T15:14:03;1.50;;;1.27;;
17574;SDS011;8906;43.590;1.418;2023-04-01T15:16:45;2.13;;;1.03;;
17574;SDS011;8906;43.590;1.418;2023-04-01T15:19:20;1.20;;;0.80;;
17574;SDS011;8906;43.590;1.418;2023-04-01T15:22:03;4.23;;;1.90;;
17574;SDS011;8906;43.590;1.418;2023-04-01T15:24:46;2.50;;;0.80;;
17574;SDS011;8906;43.590;1.418;2023-04-01T15:30:05;6.53;;;1.33;;
17574;SDS011;8906;43.590;1.418;2023-04-01T15:32:50;2.43;;;1.20;;
17574;SDS011;8906;43.590;1.418;2023-04-01T15:35:37;3.03;;;0.97;;
17574;SDS011;8906;43.590;1.418;2023-04-01T15:38:11;5.03;;;1.37;;
17574;SDS011;8906;43.590;1.418;2023-04-01T15:40:54;5.10;;;1.43;;
17574;SDS011;8906;43.590;1.418;2023-04-01T15:43:33;2.83;;;1.97;;
17574;SDS011;8906;43.590;1.418;2023-04-01T15:49:09;2.47;;;1.38;;
17574;SDS011;8906;43.590;1.418;2023-04-01T15:51:48;2.47;;;1.77;;
17574;SDS011;8906;43.590;1.418;2023-04-01T15:54:45;2.03;;;1.10;;
17574;SDS011;8906;43.590;1.418;2023-04-01T15:57:25;3.13;;;1.10;;
17574;SDS011;8906;43.590;1.418;2023-04-01T16:00:05;1.53;;;1.03;;
17574;SDS011;8906;43.590;1.418;2023-04-01T16:02:42;1.45;;;0.95;;
17574;SDS011;8906;43.590;1.418;2023-04-01T16:08:12;2.58;;;1.58;;
17574;SDS011;8906;43.590;1.418;2023-04-01T16:10:52;5.07;;;1.45;;
17574;SDS011;8906;43.590;1.418;2023-04-01T16:13:33;4.20;;;1.10;;
17574;SDS011;8906;43.590;1.418;2023-04-01T16:16:14;2.22;;;1.10;;
17574;SDS011;8906;43.590;1.418;2023-04-01T16:19:07;2.17;;;1.02;;
17574;SDS011;8906;43.590;1.418;2023-04-01T16:21:58;3.83;;;1.13;;
17574;SDS011;8906;43.590;1.418;2023-04-01T16:24:32;2.43;;;1.00;;
17574;SDS011;8906;43.590;1.418;2023-04-01T16:27:05;2.73;;;1.43;;
17574;SDS011;8906;43.590;1.418;2023-04-01T16:29:40;2.67;;;1.17;;
17574;SDS011;8906;43.590;1.418;2023-04-01T16:32:21;1.37;;;0.90;;
17574;SDS011;8906;43.590;1.418;2023-04-01T16:34:58;5.17;;;1.20;;
17574;SDS011;8906;43.590;1.418;2023-04-01T16:37:39;2.22;;;0.65;;
17574;SDS011;8906;43.590;1.418;2023-04-01T16:40:16;1.47;;;1.20;;
17574;SDS011;8906;43.590;1.418;2023-04-01T16:42:52;4.93;;;1.00;;
17574;SDS011;8906;43.590;1.418;2023-04-01T16:45:29;5.43;;;1.37;;
17574;SDS011;8906;43.590;1.418;2023-04-01T16:48:07;2.40;;;1.40;;
17574;SDS011;8906;43.590;1.418;2023-04-01T16:50:48;3.10;;;1.00;;
17574;SDS011;8906;43.590;1.418;2023-04-01T16:53:24;1.33;;;0.80;;
17574;SDS011;8906;43.590;1.418;2023-04-01T16:56:03;1.47;;;0.63;;
17574;SDS011;8906;43.590;1.418;2023-04-01T16:58:37;2.03;;;1.20;;
17574;SDS011;8906;43.590;1.418;2023-04-01T17:01:09;4.50;;;1.03;;
17574;SDS011;8906;43.590;1.418;2023-04-01T17:03:43;1.73;;;1.00;;
17574;SDS011;8906;43.590;1.418;2023-04-01T17:06:14;2.33;;;1.67;;
17574;SDS011;8906;43.590;1.418;2023-04-01T17:09:00;5.30;;;1.13;;
17574;SDS011;8906;43.590;1.418;2023-04-01T17:11:40;1.58;;;1.33;;
17574;SDS011;8906;43.590;1.418;2023-04-01T17:14:17;3.33;;;2.38;;
17574;SDS011;8906;43.590;1.418;2023-04-01T17:16:56;2.07;;;1.53;;
17574;SDS011;8906;43.590;1.418;2023-04-01T17:19:40;1.60;;;1.00;;
17574;SDS011;8906;43.590;1.418;2023-04-01T17:22:17;1.60;;;1.17;;
17574;SDS011;8906;43.590;1.418;2023-04-01T17:24:54;4.60;;;1.00;;
17574;SDS011;8906;43.590;1.418;2023-04-01T17:27:34;3.30;;;1.50;;
17574;SDS011;8906;43.590;1.418;2023-04-01T17:30:22;5.03;;;1.77;;
17574;SDS011;8906;43.590;1.418;2023-04-01T17:33:16;2.83;;;1.37;;